KLM25J EHAM-EKCH
Flight info
| Callsign | KLM25J |
|---|---|
| Flight time | 0h 58m |
| Altitude | 37000 |
| Route | ANDIK N873 JUIST DCT DOSUR P729 TUDLO |
| Aircraft | B738/M-SDE2E3FGHIRWXY/LB1 |
Departure
| Time | 2026-04-30 19:38 |
|---|---|
| Airport | Amsterdam Airport Schiphol (EHAM) |
Arrival
| Time | 2026-04-30 20:36 |
|---|---|
| Airport | Copenhagen Kastrup Airport (EKCH) |
| Time | Latitude | Longitude | Altitude | Speed | Heading |
|---|---|---|---|---|---|
| 2026-04-30 19:03 | 52.30377 | 4.76398 | -2 ft | 0 kts | 238° |
| 2026-04-30 19:21 | 52.30389 | 4.76429 | -2 ft | 4 kts | 231° |
| 2026-04-30 19:21 | 52.30415 | 4.76452 | -2 ft | 1 kts | 158° |
| 2026-04-30 19:25 | 52.30390 | 4.76479 | -2 ft | 4 kts | 143° |
| 2026-04-30 19:26 | 52.30316 | 4.76534 | -2 ft | 7 kts | 189° |
| 2026-04-30 19:26 | 52.30237 | 4.76376 | -2 ft | 11 kts | 237° |
| 2026-04-30 19:26 | 52.30185 | 4.76237 | -2 ft | 18 kts | 238° |
| 2026-04-30 19:27 | 52.30027 | 4.75826 | -2 ft | 23 kts | 238° |
| 2026-04-30 19:27 | 52.29862 | 4.75398 | -2 ft | 17 kts | 237° |
| 2026-04-30 19:28 | 52.29831 | 4.75246 | -2 ft | 14 kts | 276° |
| 2026-04-30 19:28 | 52.29941 | 4.75006 | -2 ft | 13 kts | 311° |
| 2026-04-30 19:29 | 52.30078 | 4.74756 | 0 ft | 16 kts | 311° |
| 2026-04-30 19:29 | 52.30148 | 4.74628 | 9 ft | 15 kts | 311° |
| 2026-04-30 19:30 | 52.30374 | 4.74221 | -2 ft | 14 kts | 322° |
| 2026-04-30 19:30 | 52.30598 | 4.74209 | -2 ft | 20 kts | 3° |
| 2026-04-30 19:31 | 52.30873 | 4.74234 | -2 ft | 19 kts | 3° |
| 2026-04-30 19:31 | 52.31004 | 4.74248 | -2 ft | 18 kts | 4° |
| 2026-04-30 19:31 | 52.31252 | 4.74270 | -2 ft | 17 kts | 4° |
| 2026-04-30 19:32 | 52.31316 | 4.74277 | -2 ft | 0 kts | 4° |
| 2026-04-30 19:33 | 52.31338 | 4.74280 | -2 ft | 6 kts | 4° |
| 2026-04-30 19:33 | 52.31382 | 4.74314 | -2 ft | 8 kts | 52° |
| 2026-04-30 19:33 | 52.31393 | 4.74418 | -2 ft | 10 kts | 87° |
| 2026-04-30 19:34 | 52.31396 | 4.74540 | -2 ft | 11 kts | 87° |
| 2026-04-30 19:34 | 52.31409 | 4.74650 | -2 ft | 10 kts | 51° |
| 2026-04-30 19:34 | 52.31515 | 4.74666 | -2 ft | 5 kts | 356° |
| 2026-04-30 19:35 | 52.31540 | 4.74663 | -2 ft | 2 kts | 356° |
| 2026-04-30 19:35 | 52.31554 | 4.74662 | -2 ft | 2 kts | 356° |
| 2026-04-30 19:35 | 52.31560 | 4.74662 | -2 ft | 0 kts | 357° |
| 2026-04-30 19:36 | 52.31570 | 4.74660 | -2 ft | 3 kts | 355° |
| 2026-04-30 19:36 | 52.31655 | 4.74698 | -1 ft | 7 kts | 42° |
| 2026-04-30 19:37 | 52.31667 | 4.74776 | -2 ft | 9 kts | 85° |
| 2026-04-30 19:37 | 52.31677 | 4.75044 | -4 ft | 51 kts | 87° |
| 2026-04-30 19:37 | 52.31710 | 4.76010 | -3 ft | 116 kts | 86° |
| 2026-04-30 19:37 | 52.31781 | 4.77565 | 258 ft | 140 kts | 83° |
| 2026-04-30 19:38 | 52.31906 | 4.79154 | 823 ft | 146 kts | 85° |
| 2026-04-30 19:38 | 52.32001 | 4.80752 | 1623 ft | 133 kts | 91° |
| 2026-04-30 19:38 | 52.32066 | 4.82285 | 2106 ft | 146 kts | 93° |
| 2026-04-30 19:38 | 52.32123 | 4.84047 | 2401 ft | 163 kts | 92° |
| 2026-04-30 19:39 | 52.32213 | 4.85986 | 2670 ft | 182 kts | 91° |
| 2026-04-30 19:39 | 52.32317 | 4.88150 | 2845 ft | 195 kts | 91° |
| 2026-04-30 19:39 | 52.32534 | 4.90370 | 3045 ft | 214 kts | 77° |
| 2026-04-30 19:39 | 52.33290 | 4.92655 | 3252 ft | 235 kts | 61° |
| 2026-04-30 19:40 | 52.34307 | 4.94822 | 3409 ft | 251 kts | 57° |
| 2026-04-30 19:40 | 52.35401 | 4.97102 | 3671 ft | 256 kts | 58° |
| 2026-04-30 19:40 | 52.36483 | 4.99424 | 4040 ft | 257 kts | 58° |
| 2026-04-30 19:40 | 52.37555 | 5.01790 | 4375 ft | 260 kts | 59° |
| 2026-04-30 19:41 | 52.38624 | 5.04202 | 4716 ft | 262 kts | 59° |
| 2026-04-30 19:41 | 52.39684 | 5.06618 | 5109 ft | 262 kts | 60° |
| 2026-04-30 19:41 | 52.40743 | 5.09048 | 5439 ft | 264 kts | 60° |
| 2026-04-30 19:41 | 52.41814 | 5.11495 | 5806 ft | 264 kts | 57° |
| 2026-04-30 19:42 | 52.43252 | 5.13434 | 6121 ft | 278 kts | 29° |
| 2026-04-30 19:42 | 52.45107 | 5.14460 | 6478 ft | 284 kts | 20° |
| 2026-04-30 19:42 | 52.47025 | 5.15296 | 6838 ft | 286 kts | 19° |
| 2026-04-30 19:42 | 52.48952 | 5.16107 | 7203 ft | 286 kts | 19° |
| 2026-04-30 19:43 | 52.50885 | 5.16926 | 7538 ft | 288 kts | 19° |
| 2026-04-30 19:43 | 52.52827 | 5.17760 | 8014 ft | 289 kts | 19° |
| 2026-04-30 19:43 | 52.54772 | 5.18606 | 8809 ft | 291 kts | 19° |
| 2026-04-30 19:44 | 52.58741 | 5.20353 | 10367 ft | 298 kts | 19° |
| 2026-04-30 19:44 | 52.60783 | 5.21260 | 10840 ft | 314 kts | 19° |
| 2026-04-30 19:44 | 52.62973 | 5.22239 | 11013 ft | 338 kts | 19° |
| 2026-04-30 19:44 | 52.65318 | 5.23283 | 11178 ft | 360 kts | 19° |
| 2026-04-30 19:45 | 52.67798 | 5.24386 | 11525 ft | 375 kts | 19° |
| 2026-04-30 19:45 | 52.70343 | 5.25517 | 12134 ft | 380 kts | 19° |
| 2026-04-30 19:45 | 52.72876 | 5.26787 | 12821 ft | 381 kts | 26° |
| 2026-04-30 19:45 | 52.75176 | 5.28802 | 13524 ft | 379 kts | 37° |
| 2026-04-30 19:46 | 52.77243 | 5.31491 | 14223 ft | 378 kts | 49° |
| 2026-04-30 19:46 | 52.79014 | 5.34700 | 14867 ft | 379 kts | 53° |
| 2026-04-30 19:46 | 52.80735 | 5.38030 | 15549 ft | 382 kts | 53° |
| 2026-04-30 19:46 | 52.82456 | 5.41409 | 16225 ft | 386 kts | 53° |
| 2026-04-30 19:47 | 52.84199 | 5.44836 | 16899 ft | 390 kts | 53° |
| 2026-04-30 19:47 | 52.85359 | 5.47112 | 17336 ft | 392 kts | 53° |
| 2026-04-30 19:47 | 52.87736 | 5.51756 | 18190 ft | 398 kts | 53° |
| 2026-04-30 19:47 | 52.89539 | 5.55266 | 18798 ft | 402 kts | 53° |
| 2026-04-30 19:48 | 52.91358 | 5.58800 | 19403 ft | 403 kts | 52° |
| 2026-04-30 19:48 | 52.93184 | 5.62345 | 20019 ft | 406 kts | 52° |
| 2026-04-30 19:48 | 52.95026 | 5.65924 | 20552 ft | 410 kts | 52° |
| 2026-04-30 19:48 | 52.96884 | 5.69538 | 21060 ft | 414 kts | 52° |
| 2026-04-30 19:49 | 52.98764 | 5.73199 | 21583 ft | 418 kts | 52° |
| 2026-04-30 19:49 | 53.02558 | 5.80604 | 22604 ft | 424 kts | 52° |
| 2026-04-30 19:49 | 53.04445 | 5.84294 | 23086 ft | 428 kts | 52° |
| 2026-04-30 19:50 | 53.06383 | 5.88090 | 23565 ft | 431 kts | 52° |
| 2026-04-30 19:50 | 53.08326 | 5.91903 | 24019 ft | 435 kts | 51° |
| 2026-04-30 19:50 | 53.10289 | 5.95761 | 24425 ft | 438 kts | 51° |
| 2026-04-30 19:50 | 53.12260 | 5.99639 | 24831 ft | 440 kts | 52° |
| 2026-04-30 19:51 | 53.14247 | 6.03555 | 25223 ft | 443 kts | 52° |
| 2026-04-30 19:51 | 53.16237 | 6.07483 | 25624 ft | 445 kts | 52° |
| 2026-04-30 19:51 | 53.18237 | 6.11442 | 26010 ft | 447 kts | 52° |
| 2026-04-30 19:51 | 53.20243 | 6.15415 | 26419 ft | 448 kts | 52° |
| 2026-04-30 19:52 | 53.22253 | 6.19400 | 26840 ft | 449 kts | 52° |
| 2026-04-30 19:52 | 53.24264 | 6.23397 | 27197 ft | 451 kts | 52° |
| 2026-04-30 19:52 | 53.26289 | 6.27428 | 27490 ft | 454 kts | 52° |
| 2026-04-30 19:52 | 53.28321 | 6.31477 | 27887 ft | 455 kts | 51° |
| 2026-04-30 19:53 | 53.30362 | 6.35552 | 28200 ft | 458 kts | 51° |
| 2026-04-30 19:53 | 53.32409 | 6.39648 | 28556 ft | 459 kts | 50° |
| 2026-04-30 19:53 | 53.34460 | 6.43757 | 28853 ft | 461 kts | 51° |
| 2026-04-30 19:53 | 53.36516 | 6.47885 | 29269 ft | 461 kts | 51° |
| 2026-04-30 19:54 | 53.38570 | 6.52009 | 29697 ft | 460 kts | 51° |
| 2026-04-30 19:54 | 53.40615 | 6.56125 | 30127 ft | 460 kts | 51° |
| 2026-04-30 19:54 | 53.42632 | 6.60193 | 30553 ft | 458 kts | 51° |
| 2026-04-30 19:54 | 53.44661 | 6.64293 | 30959 ft | 457 kts | 51° |
| 2026-04-30 19:55 | 53.46688 | 6.68395 | 31294 ft | 456 kts | 51° |
| 2026-04-30 19:55 | 53.48712 | 6.72497 | 31663 ft | 456 kts | 50° |
| 2026-04-30 19:55 | 53.50726 | 6.76582 | 32143 ft | 451 kts | 50° |
| 2026-04-30 19:55 | 53.52721 | 6.80638 | 32547 ft | 450 kts | 50° |
| 2026-04-30 19:56 | 53.54717 | 6.84706 | 32847 ft | 451 kts | 50° |
| 2026-04-30 19:56 | 53.56711 | 6.88774 | 33129 ft | 452 kts | 50° |
| 2026-04-30 19:56 | 53.58705 | 6.92850 | 33529 ft | 449 kts | 50° |
| 2026-04-30 19:56 | 53.60688 | 6.96910 | 33883 ft | 449 kts | 50° |
| 2026-04-30 19:57 | 53.62662 | 7.00954 | 34177 ft | 449 kts | 50° |
| 2026-04-30 19:57 | 53.64627 | 7.04990 | 34501 ft | 448 kts | 50° |
| 2026-04-30 19:57 | 53.66602 | 7.09053 | 34849 ft | 446 kts | 50° |
| 2026-04-30 19:57 | 53.68564 | 7.13097 | 35088 ft | 447 kts | 50° |
| 2026-04-30 19:58 | 53.70535 | 7.17162 | 35331 ft | 447 kts | 50° |
| 2026-04-30 19:58 | 53.72499 | 7.21222 | 35621 ft | 446 kts | 50° |
| 2026-04-30 19:58 | 53.74455 | 7.25272 | 35899 ft | 445 kts | 50° |
| 2026-04-30 19:58 | 53.76415 | 7.29335 | 36104 ft | 446 kts | 50° |
| 2026-04-30 19:59 | 53.78368 | 7.33392 | 36455 ft | 443 kts | 50° |
| 2026-04-30 19:59 | 53.80315 | 7.37441 | 36689 ft | 444 kts | 50° |
| 2026-04-30 19:59 | 53.84214 | 7.45573 | 37140 ft | 444 kts | 50° |
| 2026-04-30 20:00 | 53.85501 | 7.48264 | 37316 ft | 444 kts | 50° |
| 2026-04-30 20:00 | 53.90015 | 7.57720 | 37430 ft | 445 kts | 50° |
| 2026-04-30 20:01 | 53.95209 | 7.68647 | 37443 ft | 443 kts | 50° |
| 2026-04-30 20:01 | 53.99070 | 7.76801 | 37441 ft | 443 kts | 50° |
| 2026-04-30 20:02 | 54.04819 | 7.88994 | 37439 ft | 442 kts | 50° |
| 2026-04-30 20:03 | 54.10586 | 8.01282 | 37456 ft | 442 kts | 50° |
| 2026-04-30 20:03 | 54.14420 | 8.09487 | 37452 ft | 442 kts | 50° |
| 2026-04-30 20:04 | 54.18254 | 8.17716 | 37442 ft | 442 kts | 50° |
| 2026-04-30 20:05 | 54.23995 | 8.30093 | 37447 ft | 443 kts | 50° |
| 2026-04-30 20:05 | 54.29697 | 8.42448 | 37437 ft | 443 kts | 50° |
| 2026-04-30 20:06 | 54.33539 | 8.50807 | 37445 ft | 444 kts | 50° |
| 2026-04-30 20:06 | 54.37331 | 8.59084 | 37450 ft | 444 kts | 50° |
| 2026-04-30 20:07 | 54.41141 | 8.67429 | 37443 ft | 444 kts | 50° |
| 2026-04-30 20:08 | 54.46847 | 8.79982 | 37441 ft | 444 kts | 50° |
| 2026-04-30 20:08 | 54.50644 | 8.88368 | 37443 ft | 444 kts | 50° |
| 2026-04-30 20:09 | 54.54437 | 8.96775 | 37443 ft | 444 kts | 50° |
| 2026-04-30 20:09 | 54.60114 | 9.09410 | 37438 ft | 444 kts | 50° |
| 2026-04-30 20:10 | 54.65762 | 9.22047 | 37459 ft | 444 kts | 51° |
| 2026-04-30 20:11 | 54.71416 | 9.34761 | 37434 ft | 445 kts | 51° |
| 2026-04-30 20:11 | 54.75169 | 9.43236 | 37440 ft | 445 kts | 51° |
| 2026-04-30 20:12 | 54.80801 | 9.56010 | 37434 ft | 445 kts | 51° |
| 2026-04-30 20:13 | 54.84547 | 9.64543 | 37449 ft | 445 kts | 51° |
| 2026-04-30 20:13 | 54.88280 | 9.73076 | 37461 ft | 444 kts | 51° |
| 2026-04-30 20:13 | 54.90153 | 9.77368 | 37115 ft | 450 kts | 51° |
| 2026-04-30 20:14 | 54.92039 | 9.81696 | 36598 ft | 446 kts | 51° |
| 2026-04-30 20:14 | 54.93897 | 9.85972 | 35979 ft | 443 kts | 51° |
| 2026-04-30 20:14 | 54.95753 | 9.90250 | 35292 ft | 443 kts | 51° |
| 2026-04-30 20:14 | 54.97614 | 9.94543 | 34613 ft | 444 kts | 51° |
| 2026-04-30 20:15 | 54.99474 | 9.98843 | 33823 ft | 445 kts | 51° |
| 2026-04-30 20:15 | 55.01335 | 10.03151 | 33039 ft | 445 kts | 51° |
| 2026-04-30 20:15 | 55.03197 | 10.07471 | 32283 ft | 445 kts | 51° |
| 2026-04-30 20:15 | 55.05053 | 10.11785 | 31492 ft | 445 kts | 50° |
| 2026-04-30 20:16 | 55.06910 | 10.16107 | 30692 ft | 446 kts | 50° |
| 2026-04-30 20:16 | 55.08748 | 10.20391 | 29752 ft | 447 kts | 50° |
| 2026-04-30 20:16 | 55.10603 | 10.24724 | 29062 ft | 442 kts | 51° |
| 2026-04-30 20:16 | 55.12434 | 10.29012 | 28388 ft | 437 kts | 51° |
| 2026-04-30 20:17 | 55.14240 | 10.33246 | 27769 ft | 432 kts | 51° |
| 2026-04-30 20:17 | 55.16023 | 10.37434 | 27139 ft | 427 kts | 51° |
| 2026-04-30 20:17 | 55.17789 | 10.41589 | 26523 ft | 423 kts | 51° |
| 2026-04-30 20:17 | 55.19535 | 10.45703 | 25926 ft | 419 kts | 51° |
| 2026-04-30 20:18 | 55.21264 | 10.49785 | 25325 ft | 415 kts | 51° |
| 2026-04-30 20:18 | 55.22979 | 10.53837 | 24723 ft | 412 kts | 52° |
| 2026-04-30 20:18 | 55.24680 | 10.57863 | 24130 ft | 410 kts | 52° |
| 2026-04-30 20:18 | 55.26369 | 10.61869 | 23423 ft | 407 kts | 52° |
| 2026-04-30 20:19 | 55.27873 | 10.66045 | 22798 ft | 406 kts | 65° |
| 2026-04-30 20:19 | 55.28687 | 10.70769 | 22579 ft | 400 kts | 73° |
| 2026-04-30 20:19 | 55.29424 | 10.75411 | 22465 ft | 388 kts | 71° |
| 2026-04-30 20:19 | 55.30171 | 10.79878 | 21955 ft | 377 kts | 71° |
| 2026-04-30 20:20 | 55.30929 | 10.84310 | 20790 ft | 382 kts | 71° |
| 2026-04-30 20:20 | 55.31696 | 10.88776 | 19997 ft | 386 kts | 71° |
| 2026-04-30 20:20 | 55.32463 | 10.93282 | 19357 ft | 385 kts | 71° |
| 2026-04-30 20:20 | 55.33221 | 10.97769 | 18792 ft | 381 kts | 72° |
| 2026-04-30 20:21 | 55.33965 | 11.02219 | 18148 ft | 379 kts | 72° |
| 2026-04-30 20:21 | 55.34699 | 11.06640 | 17549 ft | 375 kts | 72° |
| 2026-04-30 20:21 | 55.35423 | 11.11011 | 16979 ft | 371 kts | 72° |
| 2026-04-30 20:21 | 55.36139 | 11.15344 | 16425 ft | 367 kts | 72° |
| 2026-04-30 20:22 | 55.36845 | 11.19625 | 15875 ft | 363 kts | 72° |
| 2026-04-30 20:22 | 55.37545 | 11.23873 | 15333 ft | 359 kts | 72° |
| 2026-04-30 20:22 | 55.38235 | 11.28073 | 14800 ft | 356 kts | 73° |
| 2026-04-30 20:22 | 55.38919 | 11.32243 | 14269 ft | 353 kts | 73° |
| 2026-04-30 20:23 | 55.39594 | 11.36370 | 13678 ft | 350 kts | 73° |
| 2026-04-30 20:23 | 55.40263 | 11.40470 | 13229 ft | 344 kts | 73° |
| 2026-04-30 20:23 | 55.40908 | 11.44431 | 13092 ft | 330 kts | 73° |
| 2026-04-30 20:23 | 55.41528 | 11.48248 | 12942 ft | 318 kts | 73° |
| 2026-04-30 20:24 | 55.42125 | 11.51924 | 12803 ft | 307 kts | 73° |
| 2026-04-30 20:24 | 55.42700 | 11.55480 | 12678 ft | 296 kts | 73° |
| 2026-04-30 20:24 | 55.43255 | 11.58919 | 12549 ft | 288 kts | 73° |
| 2026-04-30 20:24 | 55.43804 | 11.62284 | 12460 ft | 285 kts | 71° |
| 2026-04-30 20:25 | 55.45805 | 11.68165 | 12433 ft | 277 kts | 54° |
| 2026-04-30 20:25 | 55.46908 | 11.70921 | 12162 ft | 276 kts | 55° |
| 2026-04-30 20:26 | 55.49139 | 11.76581 | 11297 ft | 282 kts | 55° |
| 2026-04-30 20:26 | 55.51330 | 11.82229 | 10790 ft | 277 kts | 55° |
| 2026-04-30 20:26 | 55.52405 | 11.85015 | 10545 ft | 273 kts | 55° |
| 2026-04-30 20:27 | 55.54510 | 11.90501 | 10041 ft | 266 kts | 55° |
| 2026-04-30 20:27 | 55.56505 | 11.95923 | 9529 ft | 261 kts | 66° |
| 2026-04-30 20:28 | 55.56188 | 12.02148 | 8590 ft | 264 kts | 104° |
| 2026-04-30 20:28 | 55.55182 | 12.08330 | 7724 ft | 259 kts | 103° |
| 2026-04-30 20:29 | 55.54223 | 12.14429 | 6845 ft | 255 kts | 103° |
| 2026-04-30 20:30 | 55.52823 | 12.23439 | 5426 ft | 252 kts | 104° |
| 2026-04-30 20:30 | 55.51300 | 12.31919 | 4472 ft | 236 kts | 125° |
| 2026-04-30 20:31 | 55.48151 | 12.38221 | 3772 ft | 212 kts | 129° |
| 2026-04-30 20:32 | 55.48741 | 12.44040 | 2775 ft | 179 kts | 29° |
| 2026-04-30 20:32 | 55.50486 | 12.46897 | 2312 ft | 163 kts | 36° |
| 2026-04-30 20:33 | 55.51353 | 12.48192 | 2090 ft | 163 kts | 37° |
| 2026-04-30 20:33 | 55.52966 | 12.50684 | 1665 ft | 143 kts | 36° |
| 2026-04-30 20:33 | 55.53698 | 12.51816 | 1510 ft | 138 kts | 36° |
| 2026-04-30 20:34 | 55.55163 | 12.54095 | 1187 ft | 141 kts | 38° |
| 2026-04-30 20:34 | 55.56651 | 12.56376 | 788 ft | 144 kts | 38° |
| 2026-04-30 20:35 | 55.57412 | 12.57558 | 568 ft | 147 kts | 39° |
| 2026-04-30 20:35 | 55.58176 | 12.58750 | 364 ft | 145 kts | 38° |
| 2026-04-30 20:35 | 55.59688 | 12.61047 | 18 ft | 138 kts | 40° |
| 2026-04-30 20:36 | 55.60294 | 12.62004 | 17 ft | 96 kts | 42° |
| 2026-04-30 20:36 | 55.60712 | 12.62650 | 20 ft | 56 kts | 41° |
| 2026-04-30 20:36 | 55.61093 | 12.63241 | 19 ft | 28 kts | 40° |
| 2026-04-30 20:37 | 55.61196 | 12.63326 | 20 ft | 15 kts | 358° |
| 2026-04-30 20:37 | 55.61310 | 12.63314 | 16 ft | 17 kts | 356° |
| 2026-04-30 20:37 | 55.61411 | 12.63361 | 16 ft | 15 kts | 41° |
| 2026-04-30 20:37 | 55.61485 | 12.63477 | 16 ft | 14 kts | 41° |
| 2026-04-30 20:38 | 55.61557 | 12.63588 | 16 ft | 13 kts | 41° |
| 2026-04-30 20:38 | 55.61626 | 12.63693 | 16 ft | 13 kts | 40° |
| 2026-04-30 20:38 | 55.61693 | 12.63798 | 16 ft | 14 kts | 42° |
| 2026-04-30 20:39 | 55.61843 | 12.64028 | 17 ft | 14 kts | 40° |
| 2026-04-30 20:39 | 55.61923 | 12.64114 | 17 ft | 13 kts | 24° |
| 2026-04-30 20:39 | 55.62007 | 12.64182 | 16 ft | 14 kts | 25° |
| 2026-04-30 20:40 | 55.62205 | 12.64350 | 14 ft | 20 kts | 25° |
| 2026-04-30 20:40 | 55.62325 | 12.64415 | 16 ft | 18 kts | 14° |
| 2026-04-30 20:40 | 55.62419 | 12.64458 | 16 ft | 12 kts | 15° |
| 2026-04-30 20:41 | 55.62512 | 12.64432 | 16 ft | 7 kts | 301° |
| 2026-04-30 20:41 | 55.62537 | 12.64358 | 18 ft | 8 kts | 301° |
| 2026-04-30 20:41 | 55.62576 | 12.64266 | 16 ft | 10 kts | 330° |
| 2026-04-30 20:41 | 55.62638 | 12.64294 | 16 ft | 10 kts | 28° |
| 2026-04-30 20:42 | 55.62681 | 12.64326 | 16 ft | 4 kts | 21° |
| 2026-04-30 20:42 | 55.62698 | 12.64335 | 16 ft | 3 kts | 0° |
| 2026-04-30 20:42 | 55.62723 | 12.64292 | 16 ft | 1 kts | 306° |
| 2026-04-30 20:43 | 55.62728 | 12.64280 | 16 ft | 1 kts | 304° |
| 2026-04-30 20:43 | 55.62729 | 12.64278 | 16 ft | 0 kts | 304° |